Time,TemperatureF,DewpointF,PressureIn,WindDirection,WindDirectionDegrees,WindSpeedMPH,WindSpeedGustMPH,Humidity,HourlyPrecipIn,Conditions,Clouds,dailyrainin,SolarRadiationWatts/m^2,SoftwareType,DateUTC
2013-01-15 00:03:00,46.3,44.7,30.03,North,355,5.8,5.8,94,0.00,CLR,SKC,0.00,0.0,WeatherDisplay:10.37,2013-01-15 06:03:00,
2013-01-15 00:08:00,46.4,44.8,30.03,North,360,5.0,5.0,94,0.00,CLR,SKC,0.00,0.0,WeatherDisplay:10.37,2013-01-15 06:08:00,
2013-01-15 00:13:00,46.4,44.8,30.02,North,9,4.6,4.6,94,0.00,CLR,SKC,0.00,0.0,WeatherDisplay:10.37,2013-01-15 06:13:00,
2013-01-15 00:18:00,46.4,44.8,30.02,NW,313,6.9,6.9,94,0.00,CLR,SKC,0.00,0.0,WeatherDisplay:10.37,2013-01-15 06:18:00,
2013-01-15 00:23:00,46.4,44.8,30.02,NNE,22,6.9,6.9,94,0.00,CLR,SKC,0.00,0.0,WeatherDisplay:10.37,2013-01-15 06:23:00,
2013-01-15 00:28:00,46.4,44.8,30.02,North,349,6.0,6.0,94,0.00,CLR,SKC,0.00,0.0,WeatherDisplay:10.37,2013-01-15 06:28:00,
2013-01-15 00:33:00,46.4,44.8,30.02,NNW,329,6.0,6.0,94,0.00,CLR,SKC,0.00,0.0,WeatherDisplay:10.37,2013-01-15 06:33:00,
2013-01-15 00:38:00,46.4,44.8,30.02,North,10,4.6,4.6,94,0.00,CLR,SKC,0.00,0.0,WeatherDisplay:10.37,2013-01-15 06:38:00,
2013-01-15 00:43:00,46.4,44.8,30.02,North,351,9.2,9.2,94,0.00,CLR,SKC,0.00,0.0,WeatherDisplay:10.37,2013-01-15 06:43:00,
2013-01-15 00:48:00,46.3,44.7,30.02,NNW,345,9.2,9.2,94,0.00,CLR,SKC,0.00,0.0,WeatherDisplay:10.37,2013-01-15 06:48:00,
2013-01-15 00:53:00,46.3,44.7,30.02,NNW,333,9.2,9.2,94,0.00,CLR,SKC,0.00,0.0,WeatherDisplay:10.37,2013-01-15 06:53:00,
2013-01-15 00:58:00,46.4,45.0,30.02,NW,324,6.0,6.0,95,0.00,CLR,SKC,0.00,0.0,WeatherDisplay:10.37,2013-01-15 06:58:00,
2013-01-15 01:03:00,46.4,45.0,30.02,North,9,6.9,6.9,95,0.00,CLR,SKC,0.00,0.0,WeatherDisplay:10.37,2013-01-15 07:03:00,
2013-01-15 01:08:00,46.3,44.9,30.02,North,355,6.9,6.9,95,0.00,CLR,SKC,0.00,0.0,WeatherDisplay:10.37,2013-01-15 07:08:00,
2013-01-15 01:13:00,46.2,44.6,30.02,NNW,346,9.2,9.2,94,0.00,CLR,SKC,0.00,0.0,WeatherDisplay:10.37,2013-01-15 07:13:00,
2013-01-15 01:18:00,46.3,44.9,30.02,NNW,338,6.9,6.9,95,0.00,CLR,SKC,0.00,0.0,WeatherDisplay:10.37,2013-01-15 07:18:00,
2013-01-15 01:23:00,46.4,45.0,30.02,North,5,6.0,6.0,95,0.00,CLR,SKC,0.00,0.0,WeatherDisplay:10.37,2013-01-15 07:23:00,
2013-01-15 01:28:00,46.3,44.9,30.01,WNW,302,10.4,10.4,95,0.00,CLR,SKC,0.00,0.0,WeatherDisplay:10.37,2013-01-15 07:28:00,
2013-01-15 01:33:00,46.3,44.9,30.01,North,355,10.4,10.4,95,0.00,CLR,SKC,0.00,0.0,WeatherDisplay:10.37,2013-01-15 07:33:00,
2013-01-15 01:38:00,46.4,45.0,30.01,NNW,340,11.5,11.5,95,0.00,CLR,SKC,0.00,0.0,WeatherDisplay:10.37,2013-01-15 07:38:00,
2013-01-15 01:43:00,46.3,44.9,30.01,NNE,12,10.4,10.4,95,0.00,CLR,SKC,0.00,0.0,WeatherDisplay:10.37,2013-01-15 07:43:00,
2013-01-15 01:48:00,46.3,44.7,30.01,NW,320,11.5,11.5,94,0.00,CLR,SKC,0.00,0.0,WeatherDisplay:10.37,2013-01-15 07:48:00,
2013-01-15 01:53:00,46.2,44.6,30.01,North,355,8.1,8.1,94,0.00,CLR,SKC,0.00,0.0,WeatherDisplay:10.37,2013-01-15 07:53:00,
2013-01-15 01:58:00,46.2,44.8,30.02,NNW,329,9.2,9.2,95,0.01,RA,SKC,0.01,0.0,WeatherDisplay:10.37,2013-01-15 07:58:00,
2013-01-15 02:03:00,46.1,44.5,30.02,NW,322,10.4,10.4,94,0.01,RA,SKC,0.01,0.0,WeatherDisplay:10.37,2013-01-15 08:03:00,
2013-01-15 02:08:00,45.9,44.3,30.02,NNW,329,11.5,11.5,94,0.01,CLR,SKC,0.01,0.0,WeatherDisplay:10.37,2013-01-15 08:08:00,
2013-01-15 02:13:00,46.0,44.6,30.01,NNW,329,6.9,6.9,95,0.01,CLR,SKC,0.01,0.0,WeatherDisplay:10.37,2013-01-15 08:13:00,
2013-01-15 02:18:00,46.0,44.6,30.01,NW,313,10.4,10.4,95,0.01,CLR,SKC,0.01,0.0,WeatherDisplay:10.37,2013-01-15 08:18:00,
2013-01-15 02:23:00,46.0,44.6,30.01,NNW,333,11.5,11.5,95,0.01,CLR,SKC,0.01,0.0,WeatherDisplay:10.37,2013-01-15 08:23:00,
2013-01-15 02:28:00,45.9,44.5,30.01,NW,321,10.4,10.4,95,0.01,CLR,SKC,0.01,0.0,WeatherDisplay:10.37,2013-01-15 08:28:00,
2013-01-15 02:33:00,46.0,44.6,30.01,NW,316,10.4,10.4,95,0.01,CLR,SKC,0.01,0.0,WeatherDisplay:10.37,2013-01-15 08:33:00,
2013-01-15 02:38:00,46.0,44.6,30.01,North,351,9.2,9.2,95,0.01,CLR,SKC,0.01,0.0,WeatherDisplay:10.37,2013-01-15 08:38:00,
2013-01-15 02:43:00,46.3,44.9,30.01,NW,311,8.1,8.1,95,0.01,CLR,SKC,0.01,0.0,WeatherDisplay:10.37,2013-01-15 08:43:00,
2013-01-15 02:48:00,46.2,44.8,30.01,NNW,339,11.5,11.5,95,0.01,CLR,SKC,0.03,0.0,WeatherDisplay:10.37,2013-01-15 08:48:00,
2013-01-15 02:53:00,46.2,44.8,30.01,NW,315,10.0,10.0,95,0.03,RA,SKC,0.03,0.0,WeatherDisplay:10.37,2013-01-15 08:53:00,
2013-01-15 02:58:00,46.2,44.8,30.01,NW,314,13.8,13.8,95,0.01,RA,SKC,0.03,0.0,WeatherDisplay:10.37,2013-01-15 08:58:00,
2013-01-15 03:03:00,46.1,44.7,30.01,NW,312,12.7,12.7,95,0.01,CLR,SKC,0.03,0.0,WeatherDisplay:10.37,2013-01-15 09:03:00,
2013-01-15 03:08:00,45.9,44.5,30.01,WNW,292,12.7,12.7,95,0.01,CLR,SKC,0.03,0.0,WeatherDisplay:10.37,2013-01-15 09:08:00,
2013-01-15 03:13:00,45.9,44.5,30.01,NNW,333,13.8,13.8,95,0.01,CLR,SKC,0.03,0.0,WeatherDisplay:10.37,2013-01-15 09:13:00,
2013-01-15 03:18:00,45.9,44.5,30.01,NNW,331,11.5,11.5,95,0.01,CLR,SKC,0.03,0.0,WeatherDisplay:10.37,2013-01-15 09:18:00,
2013-01-15 03:23:00,45.7,44.4,30.01,NW,323,9.2,9.2,95,0.01,CLR,SKC,0.03,0.0,WeatherDisplay:10.37,2013-01-15 09:23:00,
2013-01-15 03:28:00,45.8,44.4,30.01,WNW,302,16.1,16.1,95,0.03,RA,SKC,0.04,0.0,WeatherDisplay:10.37,2013-01-15 09:28:00,
2013-01-15 03:33:00,45.7,44.4,30.01,NW,322,14.0,14.0,95,0.03,RA,SKC,0.04,0.0,WeatherDisplay:10.37,2013-01-15 09:33:00,
2013-01-15 03:38:00,45.5,44.2,30.01,NNW,327,11.5,11.5,95,0.03,CLR,SKC,0.04,0.0,WeatherDisplay:10.37,2013-01-15 09:38:00,
2013-01-15 03:43:00,45.6,44.3,30.02,NW,319,11.5,11.5,95,0.03,CLR,SKC,0.04,0.0,WeatherDisplay:10.37,2013-01-15 09:43:00,
2013-01-15 03:48:00,45.7,44.4,30.02,WNW,302,12.7,12.7,95,0.03,CLR,SKC,0.04,0.0,WeatherDisplay:10.37,2013-01-15 09:48:00,
2013-01-15 03:53:00,45.6,44.3,30.02,NW,319,11.5,11.5,95,0.01,CLR,SKC,0.04,0.0,WeatherDisplay:10.37,2013-01-15 09:53:00,
2013-01-15 03:58:00,45.6,44.3,30.01,NNW,328,11.5,11.5,95,0.01,CLR,SKC,0.04,0.0,WeatherDisplay:10.37,2013-01-15 09:58:00,
2013-01-15 04:03:00,45.6,44.3,30.01,NNW,335,12.7,12.7,95,0.01,CLR,SKC,0.04,0.0,WeatherDisplay:10.37,2013-01-15 10:03:00,
2013-01-15 04:08:00,45.6,44.3,30.01,WNW,302,11.5,11.5,95,0.01,CLR,SKC,0.04,0.0,WeatherDisplay:10.37,2013-01-15 10:08:00,
2013-01-15 04:13:00,45.7,44.4,30.02,NNW,333,11.5,11.5,95,0.01,CLR,SKC,0.04,0.0,WeatherDisplay:10.37,2013-01-15 10:13:00,
2013-01-15 04:18:00,45.6,44.3,30.02,NW,305,12.7,12.7,95,0.01,CLR,SKC,0.04,0.0,WeatherDisplay:10.37,2013-01-15 10:18:00,
2013-01-15 04:23:00,45.6,44.3,30.02,NNW,338,11.5,11.5,95,0.01,CLR,SKC,0.04,0.0,WeatherDisplay:10.37,2013-01-15 10:23:00,
2013-01-15 04:28:00,45.6,44.3,30.01,NW,326,11.5,11.5,95,0.00,CLR,SKC,0.04,0.0,WeatherDisplay:10.37,2013-01-15 10:28:00,
2013-01-15 04:33:00,45.6,44.3,30.01,NW,315,13.8,13.8,95,0.00,CLR,SKC,0.04,0.0,WeatherDisplay:10.37,2013-01-15 10:33:00,
2013-01-15 04:38:00,45.6,44.3,30.01,WNW,301,16.1,16.1,95,0.00,CLR,SKC,0.04,0.0,WeatherDisplay:10.37,2013-01-15 10:38:00,
2013-01-15 04:43:00,45.7,44.4,30.01,NNW,328,11.5,11.5,95,0.00,CLR,SKC,0.04,0.0,WeatherDisplay:10.37,2013-01-15 10:43:00,
2013-01-15 04:48:00,45.8,44.4,30.01,NW,305,15.0,15.0,95,0.00,CLR,SKC,0.04,0.0,WeatherDisplay:10.37,2013-01-15 10:48:00,
2013-01-15 04:53:00,45.7,44.4,30.01,NW,304,11.5,11.5,95,0.00,CLR,SKC,0.04,0.0,WeatherDisplay:10.37,2013-01-15 10:53:00,
2013-01-15 04:58:00,45.5,44.2,30.01,NNW,342,15.0,15.0,95,0.00,CLR,SKC,0.04,0.0,WeatherDisplay:10.37,2013-01-15 10:58:00,
2013-01-15 05:03:00,45.4,44.1,30.01,NNW,330,12.7,12.7,95,0.00,CLR,SKC,0.04,0.0,WeatherDisplay:10.37,2013-01-15 11:03:00,
2013-01-15 05:08:00,45.4,44.1,30.01,WNW,298,11.5,11.5,95,0.00,CLR,SKC,0.04,0.0,WeatherDisplay:10.37,2013-01-15 11:08:00,
2013-01-15 05:13:00,45.3,44.0,30.01,NW,306,11.5,11.5,95,0.00,CLR,SKC,0.04,0.0,WeatherDisplay:10.37,2013-01-15 11:13:00,
2013-01-15 05:18:00,45.2,43.9,30.01,NNW,340,13.8,13.8,95,0.01,RA,SKC,0.06,0.0,WeatherDisplay:10.37,2013-01-15 11:18:00,
2013-01-15 05:23:00,45.2,43.9,30.01,NNW,329,16.1,16.1,95,0.01,RA,SKC,0.06,0.0,WeatherDisplay:10.37,2013-01-15 11:23:00,
2013-01-15 05:28:00,45.2,43.9,30.00,NNW,327,13.8,13.8,95,0.01,CLR,SKC,0.06,0.0,WeatherDisplay:10.37,2013-01-15 11:28:00,
2013-01-15 05:33:00,45.2,43.9,30.00,NW,305,15.0,15.0,95,0.01,CLR,SKC,0.06,0.0,WeatherDisplay:10.37,2013-01-15 11:33:00,
2013-01-15 05:38:00,45.1,43.8,30.00,NW,319,13.8,13.8,95,0.01,CLR,SKC,0.06,0.0,WeatherDisplay:10.37,2013-01-15 11:38:00,
2013-01-15 05:43:00,45.1,43.8,30.01,NNW,344,11.5,11.5,95,0.01,CLR,SKC,0.06,0.0,WeatherDisplay:10.37,2013-01-15 11:43:00,
2013-01-15 05:48:00,45.0,43.7,30.01,NNE,16,15.0,15.0,95,0.01,CLR,SKC,0.06,0.0,WeatherDisplay:10.37,2013-01-15 11:48:00,
2013-01-15 05:53:00,45.1,43.8,30.01,NW,304,13.8,13.8,95,0.01,CLR,SKC,0.06,0.0,WeatherDisplay:10.37,2013-01-15 11:53:00,
2013-01-15 05:58:00,45.2,43.9,30.01,North,355,8.1,8.1,95,0.01,CLR,SKC,0.06,0.0,WeatherDisplay:10.37,2013-01-15 11:58:00,
2013-01-15 06:03:00,45.3,44.0,30.01,NW,316,15.0,15.0,95,0.01,CLR,SKC,0.06,0.0,WeatherDisplay:10.37,2013-01-15 12:03:00,
2013-01-15 06:08:00,45.3,44.0,30.01,NNW,331,11.5,11.5,95,0.01,CLR,SKC,0.07,0.0,WeatherDisplay:10.37,2013-01-15 12:08:00,
2013-01-15 06:13:00,45.3,44.0,30.01,North,350,11.5,11.5,95,0.03,RA,SKC,0.07,0.0,WeatherDisplay:10.37,2013-01-15 12:13:00,
2013-01-15 06:18:00,45.0,43.7,30.01,North,355,9.2,9.2,95,0.01,RA,SKC,0.07,0.0,WeatherDisplay:10.37,2013-01-15 12:18:00,
2013-01-15 06:23:00,44.8,43.5,30.01,North,360,13.8,13.8,95,0.01,CLR,SKC,0.07,0.0,WeatherDisplay:10.37,2013-01-15 12:23:00,
2013-01-15 06:28:00,44.8,43.5,30.02,NE,39,11.5,11.5,95,0.01,CLR,SKC,0.07,0.0,WeatherDisplay:10.37,2013-01-15 12:28:00,
2013-01-15 06:33:00,44.6,43.3,30.02,North,355,11.5,11.5,95,0.01,CLR,SKC,0.07,0.0,WeatherDisplay:10.37,2013-01-15 12:33:00,
2013-01-15 06:38:00,44.5,43.2,30.02,NNW,338,13.8,13.8,95,0.03,RA,SKC,0.09,0.0,WeatherDisplay:10.37,2013-01-15 12:38:00,
2013-01-15 06:43:00,44.6,43.3,30.02,NNW,338,11.5,11.5,95,0.03,RA,SKC,0.09,0.0,WeatherDisplay:10.37,2013-01-15 12:43:00,
2013-01-15 06:48:00,44.7,43.4,30.02,NNE,12,10.4,10.4,95,0.03,CLR,SKC,0.09,0.0,WeatherDisplay:10.37,2013-01-15 12:48:00,
2013-01-15 06:53:00,44.6,43.3,30.02,North,355,11.5,11.5,95,0.03,CLR,SKC,0.09,0.0,WeatherDisplay:10.37,2013-01-15 12:53:00,
2013-01-15 06:58:00,44.7,43.4,30.03,NNW,342,13.8,13.8,95,0.03,CLR,SKC,0.09,0.0,WeatherDisplay:10.37,2013-01-15 12:58:00,
2013-01-15 07:03:00,44.8,43.5,30.03,North,5,10.4,10.4,95,0.03,CLR,SKC,0.09,0.0,WeatherDisplay:10.37,2013-01-15 13:03:00,
2013-01-15 07:08:00,44.9,43.6,30.03,NNE,13,11.5,11.5,95,0.03,CLR,SKC,0.09,0.0,WeatherDisplay:10.37,2013-01-15 13:08:00,
2013-01-15 07:13:00,44.9,43.6,30.04,NE,42,10.4,10.4,95,0.01,CLR,SKC,0.09,0.0,WeatherDisplay:10.37,2013-01-15 13:13:00,
2013-01-15 07:18:00,44.9,43.6,30.04,North,5,11.5,11.5,95,0.01,CLR,SKC,0.09,0.0,WeatherDisplay:10.37,2013-01-15 13:18:00,
2013-01-15 07:23:00,45.0,43.7,30.04,NNE,13,11.5,11.5,95,0.01,CLR,SKC,0.09,0.0,WeatherDisplay:10.37,2013-01-15 13:23:00,
2013-01-15 07:28:00,45.1,43.8,30.05,North,11,11.5,11.5,95,0.01,CLR,SKC,0.09,0.0,WeatherDisplay:10.37,2013-01-15 13:28:00,
2013-01-15 07:33:00,45.2,43.9,30.05,North,349,8.1,8.1,95,0.01,CLR,SKC,0.09,0.0,WeatherDisplay:10.37,2013-01-15 13:33:00,
2013-01-15 07:38:00,44.9,43.6,30.05,NW,321,13.8,13.8,95,0.00,CLR,SKC,0.09,0.0,WeatherDisplay:10.37,2013-01-15 13:38:00,
2013-01-15 07:43:00,44.7,43.4,30.06,NNE,15,15.0,15.0,95,0.00,CLR,SKC,0.09,0.0,WeatherDisplay:10.37,2013-01-15 13:43:00,
2013-01-15 07:48:00,44.5,43.2,30.06,NNE,27,12.7,12.7,95,0.00,CLR,SKC,0.09,5.0,WeatherDisplay:10.37,2013-01-15 13:48:00,
2013-01-15 07:53:00,44.4,43.1,30.06,North,360,12.7,12.7,95,0.00,CLR,SKC,0.09,9.0,WeatherDisplay:10.37,2013-01-15 13:53:00,
2013-01-15 07:58:00,44.5,43.2,30.05,North,360,11.5,11.5,95,0.00,CLR,SKC,0.10,7.0,WeatherDisplay:10.37,2013-01-15 13:58:00,
2013-01-15 08:03:00,44.3,43.0,30.05,NNW,340,11.5,11.5,95,0.01,RA,SKC,0.10,14.0,WeatherDisplay:10.37,2013-01-15 14:03:00,
2013-01-15 08:08:00,44.3,43.0,30.05,NNW,333,10.4,10.4,95,0.01,RA,SKC,0.10,12.0,WeatherDisplay:10.37,2013-01-15 14:08:00,
2013-01-15 08:13:00,44.3,43.0,30.05,NW,325,11.5,11.5,95,0.01,CLR,SKC,0.10,16.0,WeatherDisplay:10.37,2013-01-15 14:13:00,
2013-01-15 08:18:00,44.4,43.1,30.05,NNE,16,9.2,9.2,95,0.01,CLR,SKC,0.10,14.0,WeatherDisplay:10.37,2013-01-15 14:18:00,
2013-01-15 08:23:00,44.5,43.2,30.05,NNW,340,10.4,10.4,95,0.01,CLR,SKC,0.10,18.0,WeatherDisplay:10.37,2013-01-15 14:23:00,
2013-01-15 08:28:00,44.6,43.3,30.06,North,9,13.0,13.0,95,0.01,CLR,SKC,0.10,21.0,WeatherDisplay:10.37,2013-01-15 14:28:00,
2013-01-15 08:33:00,44.5,43.2,30.06,NNE,13,10.4,10.4,95,0.01,CLR,SKC,0.10,35.0,WeatherDisplay:10.37,2013-01-15 14:33:00,
2013-01-15 08:38:00,44.5,43.2,30.06,NNE,24,5.8,5.8,95,0.01,CLR,SKC,0.10,37.0,WeatherDisplay:10.37,2013-01-15 14:38:00,
2013-01-15 08:43:00,44.7,43.4,30.05,NNE,17,10.0,10.0,95,0.01,CLR,SKC,0.10,25.0,WeatherDisplay:10.37,2013-01-15 14:43:00,
2013-01-15 08:48:00,44.8,43.7,30.05,NNE,19,10.4,10.4,96,0.01,CLR,SKC,0.10,19.0,WeatherDisplay:10.37,2013-01-15 14:48:00,
2013-01-15 08:53:00,44.8,43.5,30.05,NE,42,10.4,10.4,95,0.01,CLR,SKC,0.10,21.0,WeatherDisplay:10.37,2013-01-15 14:53:00,
2013-01-15 08:58:00,44.9,43.6,30.04,NE,40,10.4,10.4,95,0.01,CLR,SKC,0.10,44.0,WeatherDisplay:10.37,2013-01-15 14:58:00,
2013-01-15 09:03:00,44.8,43.5,30.04,NNW,327,10.4,10.4,95,0.00,CLR,SKC,0.10,21.0,WeatherDisplay:10.37,2013-01-15 15:03:00,
2013-01-15 09:08:00,44.9,43.6,30.04,NNW,341,12.0,12.0,95,0.00,CLR,SKC,0.10,21.0,WeatherDisplay:10.37,2013-01-15 15:08:00,
2013-01-15 09:13:00,44.8,43.5,30.05,North,9,10.4,10.4,95,0.00,CLR,SKC,0.10,16.0,WeatherDisplay:10.37,2013-01-15 15:13:00,
2013-01-15 09:18:00,44.8,43.5,30.05,NNE,30,11.5,11.5,95,0.00,CLR,SKC,0.10,25.0,WeatherDisplay:10.37,2013-01-15 15:18:00,
2013-01-15 09:23:00,44.7,43.4,30.05,North,360,10.4,10.4,95,0.00,CLR,SKC,0.10,14.0,WeatherDisplay:10.37,2013-01-15 15:23:00,
2013-01-15 09:28:00,44.6,43.3,30.05,NNW,334,10.4,10.4,95,0.00,CLR,SKC,0.10,19.0,WeatherDisplay:10.37,2013-01-15 15:28:00,
2013-01-15 09:33:00,44.9,43.6,30.05,NNE,12,9.2,9.2,95,0.00,CLR,SKC,0.10,18.0,WeatherDisplay:10.37,2013-01-15 15:33:00,
2013-01-15 09:38:00,44.9,43.6,30.05,NNW,342,4.6,4.6,95,0.00,CLR,SKC,0.10,16.0,WeatherDisplay:10.37,2013-01-15 15:38:00,
2013-01-15 09:43:00,44.7,43.4,30.06,NNE,13,11.5,11.5,95,0.00,CLR,SKC,0.10,21.0,WeatherDisplay:10.37,2013-01-15 15:43:00,
2013-01-15 09:48:00,44.5,43.2,30.06,NNW,335,8.1,8.1,95,0.00,CLR,SKC,0.10,32.0,WeatherDisplay:10.37,2013-01-15 15:48:00,
2013-01-15 09:53:00,44.4,43.1,30.06,North,10,12.7,12.7,95,0.00,CLR,SKC,0.10,23.0,WeatherDisplay:10.37,2013-01-15 15:53:00,
2013-01-15 09:58:00,44.6,43.3,30.07,North,355,11.5,11.5,95,0.00,CLR,SKC,0.10,60.0,WeatherDisplay:10.37,2013-01-15 15:58:00,
2013-01-15 10:03:00,44.4,42.8,30.07,NNE,21,12.7,12.7,94,0.00,CLR,SKC,0.10,54.0,WeatherDisplay:10.37,2013-01-15 16:03:00,
2013-01-15 10:08:00,44.5,42.9,30.07,NNW,346,11.5,11.5,94,0.00,CLR,SKC,0.10,35.0,WeatherDisplay:10.37,2013-01-15 16:08:00,
2013-01-15 10:13:00,44.5,42.9,30.09,North,360,13.8,13.8,94,0.00,CLR,SKC,0.10,35.0,WeatherDisplay:10.37,2013-01-15 16:13:00,
2013-01-15 10:18:00,44.5,42.9,30.09,NW,311,11.5,11.5,94,0.00,CLR,SKC,0.10,28.0,WeatherDisplay:10.37,2013-01-15 16:18:00,
2013-01-15 10:23:00,44.4,43.1,30.09,NNW,336,12.7,12.7,95,0.00,CLR,SKC,0.10,44.0,WeatherDisplay:10.37,2013-01-15 16:23:00,
2013-01-15 10:28:00,44.2,42.6,30.08,NNW,346,10.4,10.4,94,0.00,CLR,SKC,0.10,37.0,WeatherDisplay:10.37,2013-01-15 16:28:00,
2013-01-15 10:33:00,44.3,43.0,30.08,NNW,348,10.4,10.4,95,0.00,CLR,SKC,0.10,47.0,WeatherDisplay:10.37,2013-01-15 16:33:00,
2013-01-15 10:38:00,44.2,42.6,30.08,NW,309,11.5,11.5,94,0.00,CLR,SKC,0.10,56.0,WeatherDisplay:10.37,2013-01-15 16:38:00,
2013-01-15 10:43:00,44.1,42.8,30.07,NNW,340,13.8,13.8,95,0.00,CLR,SKC,0.10,33.0,WeatherDisplay:10.37,2013-01-15 16:43:00,
2013-01-15 10:48:00,44.0,42.4,30.07,NNE,16,11.5,11.5,94,0.00,CLR,SKC,0.10,37.0,WeatherDisplay:10.37,2013-01-15 16:48:00,
2013-01-15 10:53:00,44.0,42.7,30.07,NW,325,10.4,10.4,95,0.00,CLR,SKC,0.10,42.0,WeatherDisplay:10.37,2013-01-15 16:53:00,
2013-01-15 10:58:00,44.2,42.9,30.07,North,355,12.7,12.7,95,0.00,CLR,SKC,0.10,42.0,WeatherDisplay:10.37,2013-01-15 16:58:00,
2013-01-15 11:03:00,44.2,42.9,30.07,North,351,11.5,11.5,95,0.00,CLR,SKC,0.10,25.0,WeatherDisplay:10.37,2013-01-15 17:03:00,
2013-01-15 11:08:00,44.2,42.9,30.07,North,360,11.5,11.5,95,0.00,CLR,SKC,0.10,53.0,WeatherDisplay:10.37,2013-01-15 17:08:00,
2013-01-15 11:13:00,44.2,42.9,30.07,North,5,12.7,12.7,95,0.00,CLR,SKC,0.10,67.0,WeatherDisplay:10.37,2013-01-15 17:13:00,
2013-01-15 11:18:00,44.1,42.8,30.07,NW,321,11.5,11.5,95,0.00,CLR,SKC,0.10,60.0,WeatherDisplay:10.37,2013-01-15 17:18:00,
2013-01-15 11:23:00,44.0,42.4,30.07,NW,315,13.8,13.8,94,0.00,CLR,SKC,0.10,40.0,WeatherDisplay:10.37,2013-01-15 17:23:00,
2013-01-15 11:28:00,44.1,42.5,30.07,WNW,292,12.7,12.7,94,0.00,CLR,SKC,0.10,25.0,WeatherDisplay:10.37,2013-01-15 17:28:00,
2013-01-15 11:33:00,44.0,42.4,30.07,NW,324,12.7,12.7,94,0.00,CLR,SKC,0.10,47.0,WeatherDisplay:10.37,2013-01-15 17:33:00,
2013-01-15 11:38:00,44.0,42.4,30.07,NNE,15,10.4,10.4,94,0.00,CLR,SKC,0.10,32.0,WeatherDisplay:10.37,2013-01-15 17:38:00,
2013-01-15 11:43:00,43.8,42.2,30.06,NNW,348,11.5,11.5,94,0.00,CLR,SKC,0.10,46.0,WeatherDisplay:10.37,2013-01-15 17:43:00,
2013-01-15 11:48:00,43.7,42.1,30.06,NNE,22,9.2,9.2,94,0.00,CLR,SKC,0.10,86.0,WeatherDisplay:10.37,2013-01-15 17:48:00,
2013-01-15 11:53:00,43.7,42.1,30.06,NNW,342,11.5,11.5,94,0.00,CLR,SKC,0.10,46.0,WeatherDisplay:10.37,2013-01-15 17:53:00,
2013-01-15 11:58:00,43.5,41.9,30.04,NW,309,12.7,12.7,94,0.00,CLR,SKC,0.10,77.0,WeatherDisplay:10.37,2013-01-15 17:58:00,
2013-01-15 12:03:00,43.7,42.1,30.04,NNW,334,11.5,11.5,94,0.00,CLR,SKC,0.10,49.0,WeatherDisplay:10.37,2013-01-15 18:03:00,
2013-01-15 12:08:00,43.6,42.0,30.04,NW,319,11.5,11.5,94,0.00,CLR,SKC,0.10,32.0,WeatherDisplay:10.37,2013-01-15 18:08:00,
2013-01-15 12:13:00,43.6,42.0,30.05,NNW,327,11.5,11.5,94,0.00,CLR,SKC,0.10,62.0,WeatherDisplay:10.37,2013-01-15 18:13:00,
2013-01-15 12:18:00,43.6,42.0,30.05,NW,309,10.4,10.4,94,0.00,CLR,SKC,0.10,72.0,WeatherDisplay:10.37,2013-01-15 18:18:00,
2013-01-15 12:23:00,43.8,42.2,30.05,NNW,331,12.7,12.7,94,0.00,CLR,SKC,0.10,70.0,WeatherDisplay:10.37,2013-01-15 18:23:00,
2013-01-15 12:28:00,43.8,42.2,30.03,WNW,300,10.4,10.4,94,0.00,CLR,SKC,0.10,74.0,WeatherDisplay:10.37,2013-01-15 18:28:00,
2013-01-15 12:33:00,43.7,42.1,30.03,NW,325,10.4,10.4,94,0.00,CLR,SKC,0.10,54.0,WeatherDisplay:10.37,2013-01-15 18:33:00,
2013-01-15 12:38:00,43.7,42.1,30.03,NNW,344,6.9,6.9,94,0.00,CLR,SKC,0.10,39.0,WeatherDisplay:10.37,2013-01-15 18:38:00,
2013-01-15 12:43:00,43.8,42.2,30.05,North,355,8.0,8.0,94,0.00,CLR,SKC,0.10,46.0,WeatherDisplay:10.37,2013-01-15 18:43:00,
2013-01-15 12:48:00,43.9,42.6,30.05,North,355,9.2,9.2,95,0.00,CLR,SKC,0.10,46.0,WeatherDisplay:10.37,2013-01-15 18:48:00,
2013-01-15 12:53:00,43.9,42.3,30.05,NNW,330,6.9,6.9,94,0.00,CLR,SKC,0.10,39.0,WeatherDisplay:10.37,2013-01-15 18:53:00,
2013-01-15 12:58:00,43.9,42.6,30.03,WNW,298,10.4,10.4,95,0.00,CLR,SKC,0.10,84.0,WeatherDisplay:10.37,2013-01-15 18:58:00,
2013-01-15 13:03:00,43.8,42.2,30.03,NW,323,9.2,9.2,94,0.00,CLR,SKC,0.10,62.0,WeatherDisplay:10.37,2013-01-15 19:03:00,
2013-01-15 13:08:00,43.9,42.3,30.03,WNW,296,11.5,11.5,94,0.00,CLR,SKC,0.10,58.0,WeatherDisplay:10.37,2013-01-15 19:08:00,
2013-01-15 13:13:00,43.8,42.2,30.03,WNW,286,11.5,11.5,94,0.00,CLR,SKC,0.10,53.0,WeatherDisplay:10.37,2013-01-15 19:13:00,
2013-01-15 13:18:00,44.0,42.4,30.03,NNW,331,11.5,11.5,94,0.00,CLR,SKC,0.10,67.0,WeatherDisplay:10.37,2013-01-15 19:18:00,
2013-01-15 13:23:00,43.9,42.3,30.03,NW,319,11.5,11.5,94,0.00,CLR,SKC,0.10,65.0,WeatherDisplay:10.37,2013-01-15 19:23:00,
2013-01-15 13:28:00,44.0,42.4,30.02,NW,325,11.5,11.5,94,0.00,CLR,SKC,0.10,65.0,WeatherDisplay:10.37,2013-01-15 19:28:00,
2013-01-15 13:33:00,43.9,42.3,30.02,NW,317,10.4,10.4,94,0.00,CLR,SKC,0.10,44.0,WeatherDisplay:10.37,2013-01-15 19:33:00,
2013-01-15 13:38:00,43.9,42.0,30.02,WNW,292,13.8,13.8,93,0.00,CLR,SKC,0.10,62.0,WeatherDisplay:10.37,2013-01-15 19:38:00,
2013-01-15 13:43:00,44.0,42.4,30.04,WNW,299,12.7,12.7,94,0.00,CLR,SKC,0.10,63.0,WeatherDisplay:10.37,2013-01-15 19:43:00,
2013-01-15 13:48:00,43.9,42.3,30.04,NNW,338,13.8,13.8,94,0.00,CLR,SKC,0.10,63.0,WeatherDisplay:10.37,2013-01-15 19:48:00,
2013-01-15 13:53:00,43.7,41.8,30.04,North,355,11.0,11.0,93,0.00,CLR,SKC,0.10,105.0,WeatherDisplay:10.37,2013-01-15 19:53:00,
2013-01-15 13:58:00,43.7,41.8,30.02,North,349,11.5,11.5,93,0.00,CLR,SKC,0.10,44.0,WeatherDisplay:10.37,2013-01-15 19:58:00,
2013-01-15 14:03:00,43.7,41.8,30.02,NW,317,11.0,11.0,93,0.00,CLR,SKC,0.10,32.0,WeatherDisplay:10.37,2013-01-15 20:03:00,
2013-01-15 14:08:00,43.9,42.0,30.02,NW,304,13.8,13.8,93,0.00,CLR,SKC,0.10,33.0,WeatherDisplay:10.37,2013-01-15 20:08:00,
2013-01-15 14:13:00,43.8,42.2,30.02,NW,322,6.9,6.9,94,0.00,CLR,SKC,0.10,67.0,WeatherDisplay:10.37,2013-01-15 20:13:00,
2013-01-15 14:18:00,43.6,42.0,30.02,NW,324,10.4,10.4,94,0.00,CLR,SKC,0.10,65.0,WeatherDisplay:10.37,2013-01-15 20:18:00,
2013-01-15 14:23:00,43.4,41.8,30.02,NW,323,11.5,11.5,94,0.00,CLR,SKC,0.10,65.0,WeatherDisplay:10.37,2013-01-15 20:23:00,
2013-01-15 14:28:00,43.4,41.8,30.02,WNW,288,9.2,9.2,94,0.00,CLR,SKC,0.10,58.0,WeatherDisplay:10.37,2013-01-15 20:28:00,
2013-01-15 14:33:00,43.3,41.4,30.02,NNW,347,12.7,12.7,93,0.00,CLR,SKC,0.10,70.0,WeatherDisplay:10.37,2013-01-15 20:33:00,
2013-01-15 14:38:00,43.4,41.5,30.02,NW,304,11.5,11.5,93,0.00,CLR,SKC,0.10,58.0,WeatherDisplay:10.37,2013-01-15 20:38:00,
2013-01-15 14:43:00,43.7,41.8,30.02,NW,304,11.5,11.5,93,0.00,CLR,SKC,0.10,51.0,WeatherDisplay:10.37,2013-01-15 20:43:00,
2013-01-15 14:48:00,43.7,41.8,30.02,NNW,331,11.5,11.5,93,0.00,CLR,SKC,0.10,58.0,WeatherDisplay:10.37,2013-01-15 20:48:00,
2013-01-15 14:53:00,43.8,41.9,30.02,NW,323,11.5,11.5,93,0.00,CLR,SKC,0.10,26.0,WeatherDisplay:10.37,2013-01-15 20:53:00,
2013-01-15 14:58:00,43.6,41.7,30.04,NW,315,11.5,11.5,93,0.00,CLR,SKC,0.10,30.0,WeatherDisplay:10.37,2013-01-15 20:58:00,
2013-01-15 15:03:00,43.4,41.5,30.04,West,272,15.0,15.0,93,0.00,CLR,SKC,0.10,33.0,WeatherDisplay:10.37,2013-01-15 21:03:00,
2013-01-15 15:08:00,43.4,41.5,30.04,NW,304,12.7,12.7,93,0.00,CLR,SKC,0.10,37.0,WeatherDisplay:10.37,2013-01-15 21:08:00,
2013-01-15 15:13:00,43.4,41.2,30.02,NW,316,15.0,15.0,92,0.00,CLR,SKC,0.10,42.0,WeatherDisplay:10.37,2013-01-15 21:13:00,
2013-01-15 15:18:00,43.3,41.1,30.02,WNW,287,15.0,15.0,92,0.00,CLR,SKC,0.10,44.0,WeatherDisplay:10.37,2013-01-15 21:18:00,
2013-01-15 15:23:00,43.4,41.2,30.02,NW,313,13.8,13.8,92,0.00,CLR,SKC,0.10,25.0,WeatherDisplay:10.37,2013-01-15 21:23:00,
2013-01-15 15:28:00,43.4,41.2,30.04,NW,317,12.7,12.7,92,0.00,CLR,SKC,0.10,23.0,WeatherDisplay:10.37,2013-01-15 21:28:00,
2013-01-15 15:33:00,43.0,40.8,30.04,WSW,247,17.3,17.3,92,0.00,CLR,SKC,0.10,30.0,WeatherDisplay:10.37,2013-01-15 21:33:00,
2013-01-15 15:38:00,43.0,40.8,30.04,NW,312,17.3,17.3,92,0.00,CLR,SKC,0.10,39.0,WeatherDisplay:10.37,2013-01-15 21:38:00,
2013-01-15 15:43:00,43.1,40.7,30.05,NW,311,11.5,11.5,91,0.00,CLR,SKC,0.10,30.0,WeatherDisplay:10.37,2013-01-15 21:43:00,
2013-01-15 15:48:00,43.1,40.7,30.05,NW,325,16.1,16.1,91,0.00,CLR,SKC,0.10,26.0,WeatherDisplay:10.37,2013-01-15 21:48:00,
2013-01-15 15:53:00,43.0,40.6,30.05,NW,304,16.0,16.0,91,0.00,CLR,SKC,0.10,42.0,WeatherDisplay:10.37,2013-01-15 21:53:00,
2013-01-15 15:58:00,43.1,40.7,30.05,NNW,339,15.0,15.0,91,0.00,CLR,SKC,0.10,60.0,WeatherDisplay:10.37,2013-01-15 21:58:00,
2013-01-15 16:03:00,43.1,40.4,30.05,NW,325,12.7,12.7,90,0.00,CLR,SKC,0.10,47.0,WeatherDisplay:10.37,2013-01-15 22:03:00,
2013-01-15 16:08:00,43.2,40.5,30.05,NW,317,17.0,17.0,90,0.00,CLR,SKC,0.10,37.0,WeatherDisplay:10.37,2013-01-15 22:08:00,
2013-01-15 16:13:00,43.3,40.6,30.04,WNW,298,15.0,15.0,90,0.00,CLR,SKC,0.10,26.0,WeatherDisplay:10.37,2013-01-15 22:13:00,
2013-01-15 16:18:00,43.2,40.5,30.04,NW,312,16.1,16.1,90,0.00,CLR,SKC,0.10,25.0,WeatherDisplay:10.37,2013-01-15 22:18:00,
2013-01-15 16:23:00,43.1,40.4,30.04,NW,311,17.3,17.3,90,0.00,CLR,SKC,0.10,25.0,WeatherDisplay:10.37,2013-01-15 22:23:00,
2013-01-15 16:28:00,43.2,40.5,30.05,NW,305,11.5,11.5,90,0.00,CLR,SKC,0.10,16.0,WeatherDisplay:10.37,2013-01-15 22:28:00,
2013-01-15 16:33:00,43.1,40.4,30.05,WNW,294,16.1,16.1,90,0.00,CLR,SKC,0.10,12.0,WeatherDisplay:10.37,2013-01-15 22:33:00,
2013-01-15 16:38:00,43.1,40.4,30.05,WNW,302,16.0,16.0,90,0.00,CLR,SKC,0.10,14.0,WeatherDisplay:10.37,2013-01-15 22:38:00,
2013-01-15 16:43:00,43.0,40.0,30.07,NW,310,15.0,15.0,89,0.00,CLR,SKC,0.10,11.0,WeatherDisplay:10.37,2013-01-15 22:43:00,
2013-01-15 16:48:00,43.2,40.5,30.07,NNW,336,16.1,16.1,90,0.00,CLR,SKC,0.10,11.0,WeatherDisplay:10.37,2013-01-15 22:48:00,
2013-01-15 16:53:00,43.0,40.0,30.07,NNW,327,15.0,15.0,89,0.00,CLR,SKC,0.10,11.0,WeatherDisplay:10.37,2013-01-15 22:53:00,
2013-01-15 16:58:00,42.8,39.5,30.08,NNW,344,16.1,16.1,88,0.00,CLR,SKC,0.10,11.0,WeatherDisplay:10.37,2013-01-15 22:58:00,
2013-01-15 17:03:00,42.8,39.2,30.08,NW,309,15.0,15.0,87,0.00,CLR,SKC,0.10,14.0,WeatherDisplay:10.37,2013-01-15 23:03:00,
2013-01-15 17:08:00,43.0,39.4,30.08,NW,317,13.8,13.8,87,0.00,CLR,SKC,0.10,11.0,WeatherDisplay:10.37,2013-01-15 23:08:00,
2013-01-15 17:13:00,43.1,39.5,30.09,NW,319,17.3,17.3,87,0.00,CLR,SKC,0.10,11.0,WeatherDisplay:10.37,2013-01-15 23:13:00,
2013-01-15 17:18:00,43.2,39.9,30.09,NNW,327,13.8,13.8,88,0.00,CLR,SKC,0.10,11.0,WeatherDisplay:10.37,2013-01-15 23:18:00,
2013-01-15 17:23:00,43.2,39.6,30.09,NW,319,15.0,15.0,87,0.00,CLR,SKC,0.10,7.0,WeatherDisplay:10.37,2013-01-15 23:23:00,
2013-01-15 17:28:00,43.2,39.9,30.09,WNW,290,14.0,14.0,88,0.00,CLR,SKC,0.10,5.0,WeatherDisplay:10.37,2013-01-15 23:28:00,
2013-01-15 17:33:00,43.1,39.5,30.09,NW,323,10.4,10.4,87,0.00,CLR,SKC,0.10,0.0,WeatherDisplay:10.37,2013-01-15 23:33:00,
2013-01-15 17:38:00,43.1,39.5,30.09,NW,323,15.0,15.0,87,0.00,CLR,SKC,0.10,0.0,WeatherDisplay:10.37,2013-01-15 23:38:00,
2013-01-15 17:43:00,43.0,39.4,30.09,NNW,328,13.8,13.8,87,0.00,CLR,SKC,0.10,0.0,WeatherDisplay:10.37,2013-01-15 23:43:00,
2013-01-15 17:48:00,42.8,38.9,30.09,WNW,296,13.8,13.8,86,0.00,CLR,SKC,0.10,0.0,WeatherDisplay:10.37,2013-01-15 23:48:00,
2013-01-15 17:53:00,42.9,39.0,30.09,WNW,302,15.0,15.0,86,0.00,CLR,SKC,0.10,0.0,WeatherDisplay:10.37,2013-01-15 23:53:00,
2013-01-15 17:58:00,42.9,39.0,30.09,NW,304,17.3,17.3,86,0.00,CLR,SKC,0.10,0.0,WeatherDisplay:10.37,2013-01-15 23:58:00,
2013-01-15 18:03:00,42.8,38.9,30.09,WNW,282,13.8,13.8,86,0.00,CLR,SKC,0.10,0.0,WeatherDisplay:10.37,2013-01-16 00:03:00,
2013-01-15 18:08:00,42.9,39.0,30.09,NW,305,13.8,13.8,86,0.00,CLR,SKC,0.10,0.0,WeatherDisplay:10.37,2013-01-16 00:08:00,
2013-01-15 18:13:00,42.8,38.9,30.10,NW,315,16.1,16.1,86,0.00,CLR,SKC,0.10,0.0,WeatherDisplay:10.37,2013-01-16 00:13:00,
2013-01-15 18:18:00,42.8,38.6,30.10,NW,319,16.1,16.1,85,0.00,CLR,SKC,0.10,0.0,WeatherDisplay:10.37,2013-01-16 00:18:00,
2013-01-15 18:23:00,42.9,39.0,30.10,NW,315,16.1,16.1,86,0.00,CLR,SKC,0.10,0.0,WeatherDisplay:10.37,2013-01-16 00:23:00,
2013-01-15 18:28:00,42.9,39.0,30.11,NNW,336,15.0,15.0,86,0.00,CLR,SKC,0.10,0.0,WeatherDisplay:10.37,2013-01-16 00:28:00,
2013-01-15 18:33:00,43.0,39.4,30.11,NW,319,13.8,13.8,87,0.00,CLR,SKC,0.10,0.0,WeatherDisplay:10.37,2013-01-16 00:33:00,
2013-01-15 18:38:00,42.8,38.9,30.11,NNW,343,13.8,13.8,86,0.00,CLR,SKC,0.10,0.0,WeatherDisplay:10.37,2013-01-16 00:38:00,
2013-01-15 18:43:00,42.8,38.9,30.12,NNW,332,15.0,15.0,86,0.00,CLR,SKC,0.10,0.0,WeatherDisplay:10.37,2013-01-16 00:43:00,
2013-01-15 18:48:00,42.9,39.0,30.12,NW,304,9.0,9.0,86,0.00,CLR,SKC,0.10,0.0,WeatherDisplay:10.37,2013-01-16 00:48:00,
2013-01-15 18:53:00,42.7,38.5,30.12,NW,312,12.7,12.7,85,0.00,CLR,SKC,0.10,0.0,WeatherDisplay:10.37,2013-01-16 00:53:00,
2013-01-15 18:58:00,42.7,38.8,30.11,WNW,294,18.4,18.4,86,0.00,CLR,SKC,0.10,0.0,WeatherDisplay:10.37,2013-01-16 00:58:00,
2013-01-15 19:03:00,42.6,38.4,30.11,NW,309,19.6,19.6,85,0.00,CLR,SKC,0.10,0.0,WeatherDisplay:10.37,2013-01-16 01:03:00,
2013-01-15 19:08:00,42.7,38.8,30.11,WNW,296,17.3,17.3,86,0.00,CLR,SKC,0.10,0.0,WeatherDisplay:10.37,2013-01-16 01:08:00,
2013-01-15 19:13:00,42.5,38.3,30.11,NNW,327,15.0,15.0,85,0.00,CLR,SKC,0.10,0.0,WeatherDisplay:10.37,2013-01-16 01:13:00,
2013-01-15 19:18:00,42.5,38.3,30.11,NW,317,15.0,15.0,85,0.00,CLR,SKC,0.10,0.0,WeatherDisplay:10.37,2013-01-16 01:18:00,
2013-01-15 19:23:00,42.5,38.3,30.11,NNW,332,18.0,18.0,85,0.00,CLR,SKC,0.10,0.0,WeatherDisplay:10.37,2013-01-16 01:23:00,
2013-01-15 19:28:00,42.5,38.3,30.12,WNW,292,13.8,13.8,85,0.00,CLR,SKC,0.10,0.0,WeatherDisplay:10.37,2013-01-16 01:28:00,
2013-01-15 19:33:00,42.4,38.2,30.12,NW,312,16.1,16.1,85,0.00,CLR,SKC,0.10,0.0,WeatherDisplay:10.37,2013-01-16 01:33:00,
2013-01-15 19:38:00,42.5,38.3,30.12,NW,313,13.8,13.8,85,0.00,CLR,SKC,0.10,0.0,WeatherDisplay:10.37,2013-01-16 01:38:00,
2013-01-15 19:43:00,42.4,38.2,30.11,WNW,297,16.1,16.1,85,0.00,CLR,SKC,0.10,0.0,WeatherDisplay:10.37,2013-01-16 01:43:00,
2013-01-15 19:48:00,42.4,38.2,30.11,NW,311,12.7,12.7,85,0.00,CLR,SKC,0.10,0.0,WeatherDisplay:10.37,2013-01-16 01:48:00,
2013-01-15 19:53:00,42.4,38.2,30.11,NW,325,13.8,13.8,85,0.00,CLR,SKC,0.10,0.0,WeatherDisplay:10.37,2013-01-16 01:53:00,
2013-01-15 19:58:00,42.4,38.2,30.12,WNW,298,13.8,13.8,85,0.00,CLR,SKC,0.10,0.0,WeatherDisplay:10.37,2013-01-16 01:58:00,
2013-01-15 20:03:00,42.3,38.1,30.12,NW,315,14.0,14.0,85,0.00,CLR,SKC,0.10,0.0,WeatherDisplay:10.37,2013-01-16 02:03:00,
2013-01-15 20:08:00,42.3,38.1,30.12,NW,323,17.3,17.3,85,0.00,CLR,SKC,0.10,0.0,WeatherDisplay:10.37,2013-01-16 02:08:00,
2013-01-15 20:13:00,42.2,38.0,30.12,NW,310,12.7,12.7,85,0.00,CLR,SKC,0.10,0.0,WeatherDisplay:10.37,2013-01-16 02:13:00,
2013-01-15 20:18:00,42.3,38.1,30.12,NW,317,15.0,15.0,85,0.00,CLR,SKC,0.10,0.0,WeatherDisplay:10.37,2013-01-16 02:18:00,
2013-01-15 20:23:00,42.3,38.1,30.12,NW,320,12.7,12.7,85,0.00,CLR,SKC,0.10,0.0,WeatherDisplay:10.37,2013-01-16 02:23:00,
2013-01-15 20:28:00,42.3,38.1,30.13,NW,323,16.1,16.1,85,0.00,CLR,SKC,0.10,0.0,WeatherDisplay:10.37,2013-01-16 02:28:00,
2013-01-15 20:33:00,42.1,37.9,30.13,NW,325,16.1,16.1,85,0.00,CLR,SKC,0.10,0.0,WeatherDisplay:10.37,2013-01-16 02:33:00,
2013-01-15 20:38:00,42.0,37.8,30.13,NW,319,16.1,16.1,85,0.00,CLR,SKC,0.10,0.0,WeatherDisplay:10.37,2013-01-16 02:38:00,
2013-01-15 20:43:00,42.0,37.8,30.14,NW,317,17.3,17.3,85,0.00,CLR,SKC,0.10,0.0,WeatherDisplay:10.37,2013-01-16 02:43:00,
2013-01-15 20:48:00,42.2,38.0,30.14,WNW,302,17.3,17.3,85,0.00,CLR,SKC,0.10,0.0,WeatherDisplay:10.37,2013-01-16 02:48:00,
2013-01-15 20:53:00,42.2,38.0,30.14,NW,318,16.1,16.1,85,0.00,CLR,SKC,0.10,0.0,WeatherDisplay:10.37,2013-01-16 02:53:00,
2013-01-15 20:58:00,42.0,37.8,30.14,NNW,330,17.3,17.3,85,0.00,CLR,SKC,0.10,0.0,WeatherDisplay:10.37,2013-01-16 02:58:00,
2013-01-15 21:03:00,42.0,37.8,30.14,NNW,327,19.6,19.6,85,0.00,CLR,SKC,0.10,0.0,WeatherDisplay:10.37,2013-01-16 03:03:00,
2013-01-15 21:08:00,41.9,37.4,30.14,NW,325,19.6,19.6,84,0.00,CLR,SKC,0.10,0.0,WeatherDisplay:10.37,2013-01-16 03:08:00,
2013-01-15 21:13:00,42.0,37.8,30.15,NW,312,19.6,19.6,85,0.00,CLR,SKC,0.10,0.0,WeatherDisplay:10.37,2013-01-16 03:13:00,
2013-01-15 21:18:00,41.9,37.7,30.15,NW,318,18.4,18.4,85,0.00,CLR,SKC,0.10,0.0,WeatherDisplay:10.37,2013-01-16 03:18:00,
2013-01-15 21:23:00,42.0,37.8,30.15,NW,321,18.4,18.4,85,0.00,CLR,SKC,0.10,0.0,WeatherDisplay:10.37,2013-01-16 03:23:00,
2013-01-15 21:28:00,41.8,37.3,30.14,NW,309,17.3,17.3,84,0.00,CLR,SKC,0.10,0.0,WeatherDisplay:10.37,2013-01-16 03:28:00,
2013-01-15 21:33:00,41.9,37.7,30.14,NW,318,15.0,15.0,85,0.00,CLR,SKC,0.10,0.0,WeatherDisplay:10.37,2013-01-16 03:33:00,
2013-01-15 21:38:00,42.0,37.8,30.14,NW,315,19.6,19.6,85,0.00,CLR,SKC,0.10,0.0,WeatherDisplay:10.37,2013-01-16 03:38:00,
2013-01-15 21:43:00,42.0,37.8,30.14,NNW,346,13.8,13.8,85,0.00,CLR,SKC,0.10,0.0,WeatherDisplay:10.37,2013-01-16 03:43:00,
2013-01-15 21:48:00,41.8,37.6,30.14,North,351,18.4,18.4,85,0.00,CLR,SKC,0.10,0.0,WeatherDisplay:10.37,2013-01-16 03:48:00,
2013-01-15 21:53:00,41.9,37.7,30.14,WNW,301,18.4,18.4,85,0.00,CLR,SKC,0.10,0.0,WeatherDisplay:10.37,2013-01-16 03:53:00,
2013-01-15 21:58:00,41.8,37.6,30.15,NW,318,19.6,19.6,85,0.00,CLR,SKC,0.10,0.0,WeatherDisplay:10.37,2013-01-16 03:58:00,
2013-01-15 22:03:00,41.8,37.6,30.15,NNW,327,16.1,16.1,85,0.00,CLR,SKC,0.10,0.0,WeatherDisplay:10.37,2013-01-16 04:03:00,
2013-01-15 22:08:00,42.0,37.8,30.15,WNW,303,19.6,19.6,85,0.00,CLR,SKC,0.10,0.0,WeatherDisplay:10.37,2013-01-16 04:08:00,
2013-01-15 22:13:00,42.0,37.8,30.16,NW,304,19.6,19.6,85,0.00,CLR,SKC,0.10,0.0,WeatherDisplay:10.37,2013-01-16 04:13:00,
2013-01-15 22:18:00,42.0,37.8,30.16,NW,311,17.3,17.3,85,0.00,CLR,SKC,0.10,0.0,WeatherDisplay:10.37,2013-01-16 04:18:00,
2013-01-15 22:23:00,42.1,37.9,30.16,WNW,297,17.3,17.3,85,0.00,CLR,SKC,0.10,0.0,WeatherDisplay:10.37,2013-01-16 04:23:00,
2013-01-15 22:28:00,42.1,37.9,30.16,NNW,345,19.6,19.6,85,0.00,CLR,SKC,0.10,0.0,WeatherDisplay:10.37,2013-01-16 04:28:00,
2013-01-15 22:33:00,42.0,37.5,30.16,North,355,13.8,13.8,84,0.00,CLR,SKC,0.10,0.0,WeatherDisplay:10.37,2013-01-16 04:33:00,
2013-01-15 22:38:00,42.0,37.5,30.16,NW,317,16.1,16.1,84,0.00,CLR,SKC,0.10,0.0,WeatherDisplay:10.37,2013-01-16 04:38:00,
2013-01-15 22:43:00,42.2,38.0,30.18,NW,321,13.8,13.8,85,0.00,CLR,SKC,0.10,0.0,WeatherDisplay:10.37,2013-01-16 04:43:00,
2013-01-15 22:48:00,42.4,38.2,30.18,NW,319,15.0,15.0,85,0.00,CLR,SKC,0.10,0.0,WeatherDisplay:10.37,2013-01-16 04:48:00,
2013-01-15 22:53:00,42.4,37.9,30.18,NW,316,16.1,16.1,84,0.00,CLR,SKC,0.10,0.0,WeatherDisplay:10.37,2013-01-16 04:53:00,
2013-01-15 22:58:00,42.4,37.9,30.18,NW,315,13.8,13.8,84,0.00,CLR,SKC,0.10,0.0,WeatherDisplay:10.37,2013-01-16 04:58:00,
2013-01-15 23:01:00,42.4,37.9,30.18,WNW,294,18.4,18.4,84,0.00,CLR,SKC,0.10,0.0,WeatherDisplay:10.37,2013-01-16 05:01:00,
2013-01-15 23:02:00,42.4,37.9,30.18,NNW,333,18.4,18.4,84,0.00,CLR,SKC,0.10,0.0,WeatherDisplay:10.37,2013-01-16 05:02:00,
2013-01-15 23:03:00,42.4,37.9,30.18,NW,311,13.8,13.8,84,0.00,CLR,SKC,0.10,0.0,WeatherDisplay:10.37,2013-01-16 05:03:00,
2013-01-15 23:08:00,42.5,38.3,30.18,NNW,330,16.1,16.1,85,0.00,CLR,SKC,0.10,0.0,WeatherDisplay:10.37,2013-01-16 05:08:00,
2013-01-15 23:13:00,42.3,37.8,30.18,NW,319,13.8,13.8,84,0.00,CLR,SKC,0.10,0.0,WeatherDisplay:10.37,2013-01-16 05:13:00,
2013-01-15 23:18:00,42.3,37.8,30.18,NNW,341,17.3,17.3,84,0.00,CLR,SKC,0.10,0.0,WeatherDisplay:10.37,2013-01-16 05:18:00,
2013-01-15 23:23:00,42.4,38.2,30.18,WNW,300,17.3,17.3,85,0.00,CLR,SKC,0.10,0.0,WeatherDisplay:10.37,2013-01-16 05:23:00,
2013-01-15 23:28:00,42.5,38.3,30.18,NNW,329,13.8,13.8,85,0.00,CLR,SKC,0.10,0.0,WeatherDisplay:10.37,2013-01-16 05:28:00,
2013-01-15 23:33:00,42.5,38.3,30.18,NNW,336,15.0,15.0,85,0.00,CLR,SKC,0.10,0.0,WeatherDisplay:10.37,2013-01-16 05:33:00,
2013-01-15 23:38:00,42.5,38.3,30.18,NNW,333,15.0,15.0,85,0.00,CLR,SKC,0.10,0.0,WeatherDisplay:10.37,2013-01-16 05:38:00,
2013-01-15 23:43:00,42.5,38.3,30.18,NW,316,19.0,19.0,85,0.00,CLR,SKC,0.10,0.0,WeatherDisplay:10.37,2013-01-16 05:43:00,
2013-01-15 23:49:00,42.5,38.3,30.18,WNW,301,16.1,16.1,85,0.00,CLR,SKC,0.10,0.0,WeatherDisplay:10.37,2013-01-16 05:49:00,
2013-01-15 23:54:00,42.5,38.0,30.18,WNW,294,21.9,21.9,84,0.00,CLR,SKC,0.10,0.0,WeatherDisplay:10.37,2013-01-16 05:54:00,
2013-01-15 23:59:00,42.5,38.0,30.20,NW,304,17.0,17.0,84,0.00,CLR,SKC,0.10,0.0,WeatherDisplay:10.37,2013-01-16 05:59:00,